METAR Data
IDs: Format: Raw Decoded Include TAF

Data at: 0853 UTC 20 Sep 2018

PAIK 200756Z AUTO 35005KT 10SM OVC015 06/05 A3005 RMK AO2 RAE43 SLP179 P0000 T00560050
PAIK 200656Z AUTO 34006KT 10SM -RA OVC017 06/05 A3004 RMK AO2 RAB10 SLP178 P0001 T00560050
PAIK 200612Z AUTO 02004KT 10SM -RA SCT012 OVC022 06/05 A3005 RMK AO2 RAB10 P0000
PAIK 200556Z AUTO 01003KT 10SM FEW006 OVC010 06/05 A3005 RMK AO2 RAE02B34E54 SLP179 P0001 60013 T00560050 10078 20056 56002
PAIK 200540Z AUTO 00000KT 3SM -RA BR BKN010 OVC017 06/04 A3005 RMK AO2 RAE02B34 CIG 006V012 P0001
PAIK 200516Z AUTO 06004KT 10SM FEW008 OVC019 06/05 A3005 RMK AO2 RAE02 P0000
PAIK 200456Z AUTO 02006KT 10SM -RA OVC019 06/04 A3005 RMK AO2 SLP180 P0000 T00610044
PAIK 200356Z AUTO 34005KT 10SM -RA BKN023 OVC034 06/06 A3005 RMK AO2 SLP179 P0005 T00610056
PAIK 200335Z AUTO 33005KT 10SM -RA FEW021 SCT028 OVC033 06/06 A3005 RMK AO2 P0005
PAIK 200327Z AUTO 34006KT 10SM -RA BKN021 BKN028 OVC036 07/06 A3005 RMK AO2 P0004
PAIK 200304Z AUTO 35003KT 10SM -RA SCT023 BKN030 OVC036 07/06 A3005 RMK AO2 P0001
PAIK 200256Z AUTO 00000KT 10SM -RA BKN029 OVC036 07/05 A3005 RMK AO2 SLP181 P0002 60007 T00670050 56006
PAIK 200224Z AUTO 02003KT 10SM -RA FEW026 OVC038 07/05 A3006 RMK AO2 P0000
PAIK 200156Z AUTO 02004KT 10SM -RA SCT020 OVC026 07/05 A3006 RMK AO2 SLP184 P0002 T00670050
PAIK 200104Z AUTO 05005KT 10SM -RA FEW016 BKN021 OVC034 08/06 A3006 RMK AO2 P0000
PAIK 200056Z AUTO 06005KT 10SM -RA SCT019 BKN034 OVC042 08/05 A3006 RMK AO2 SLP184 P0003 T00780050
PAIK 200038Z AUTO 04005KT 10SM -RA FEW014 SCT033 OVC041 08/06 A3007 RMK AO2 P0003
PAIK 192356Z AUTO 05004KT 10SM -RA BKN016 OVC027 07/06 A3007 RMK AO2 SLP188 P0001 60016 T00720056 10072 20050 56006
PAIK 192347Z AUTO 35005KT 10SM -RA BKN016 BKN025 OVC030 07/06 A3007 RMK AO2 P0001
PAIK 192256Z AUTO 03004KT 10SM -RA FEW023 OVC033 07/06 A3008 RMK AO2 SLP189 P0004 T00720056
PAIK 192234Z AUTO 03004KT 10SM -RA FEW011 SCT018 OVC031 07/06 A3008 RMK AO2 P0003
PAIK 192203Z AUTO 08004KT 10SM -RA SCT020 BKN027 OVC032 07/06 A3008 RMK AO2 P0001
PAIK 192156Z AUTO 06005KT 10SM -RA FEW011 SCT022 OVC030 07/06 A3008 RMK AO2 SLP192 P0003 T00670056
PAIK 192146Z AUTO 05005KT 10SM -RA FEW007 SCT012 OVC030 07/06 A3009 RMK AO2 P0002
PAIK 192139Z AUTO 03004KT 10SM -RA SCT005 BKN012 OVC028 07/06 A3009 RMK AO2 P0002
PAIK 192104Z AUTO 03005KT 10SM -RA BKN005 OVC013 07/06 A3009 RMK AO2 CIG 003V008 P0000
PAIK 192056Z AUTO 36006KT 10SM -RA SCT003 OVC013 07/06 A3009 RMK AO2 SLP194 P0002 60008 T00670056 58008
PAIK 192003Z AUTO 00000KT 10SM -RA BKN003 BKN013 OVC025 06/06 A3010 RMK AO2 P0001
PAIK 191956Z AUTO 06004KT 10SM -RA SCT003 BKN012 OVC025 06/05 A3010 RMK AO2 SLP198 P0003 T00560050
PAIK 191937Z AUTO 07005KT 7SM -RA SCT003 BKN012 OVC030 06/05 A3010 RMK AO2 P0002
PAIK 191916Z AUTO 08003KT 10SM -RA BKN014 OVC030 06/05 A3010 RMK AO2 P0001
PAIK 191906Z AUTO 06003KT 10SM -RA SCT012 SCT023 OVC030 06/05 A3011 RMK AO2 P0000
PAIK 191856Z AUTO 06004KT 10SM -RA SCT003 BKN012 OVC032 06/05 A3011 RMK AO2 SLP199 P0003 T00560050
PAIK 191756Z AUTO 09004KT 10SM -RA OVC003 06/05 A3012 RMK AO2 SLP202 P0001 60005 T00560050 10061 20050 56006
PAIK 191656Z AUTO 00000KT 10SM -RA OVC003 06/05 A3012 RMK AO2 SLP204 P0001 T00560050
PAIK 191604Z AUTO 07003KT 10SM -RA BKN003 OVC035 06/05 A3013 RMK AO2 P0000
PAIK 191556Z AUTO 08004KT 10SM -RA SCT003 BKN013 OVC035 06/05 A3013 RMK AO2 CIG 009V018 SLP206 P0001 T00560050
PAIK 191504Z AUTO 00000KT 10SM -RA BKN003 OVC028 06/05 A3013 RMK AO2 P0000
PAIK 191456Z AUTO 00000KT 10SM -RA SCT003 OVC028 06/05 A3013 RMK AO2 SLP207 P0000 60002 T00560050 56006
PAIK 191356Z AUTO VRB03KT 10SM -RA SCT005 BKN022 OVC029 06/05 A3014 RMK AO2 SLP209 P0002 T00560050
PAIK 191330Z AUTO 00000KT 10SM -RA FEW005 BKN026 OVC032 06/05 A3014 RMK AO2 P0000
PAIK 191256Z AUTO 08003KT 10SM -RA OVC032 06/05 A3014 RMK AO2 RAB1159 SLP211 P0000 T00560050
PAIK 191156Z AUTO 09004KT 10SM OVC038 06/05 A3015 RMK AO2 RAE00 SLP214 P0000 60001 70022 T00610050 10078 20056 58005
PAIK 191056Z AUTO 08003KT 10SM -RA SCT038 BKN047 OVC070 06/05 A3016 RMK AO2 SLP216 P0001 T00610050
PAIK 190956Z AUTO 00000KT 10SM -RA OVC034 06/04 A3016 RMK AO2 RAB03 SLP217 P0000 T00610044
PAIK 190856Z AUTO 00000KT 10SM FEW048 BKN090 BKN110 07/04 A3017 RMK AO2 SLP218 T00670039 401110067 58005
PAIK 190756Z AUTO 09003KT 10SM OVC060 07/04 A3017 RMK AO2 SLP221 T00720044
PAIK 190556Z AUTO 00000KT 10SM OVC060 07/05 A3018 RMK AO2 SLP223 T00720050 10111 20072 58001
PAIK 190456Z AUTO 06003KT 10SM OVC060 08/04 A3019 RMK AO2 SLP225 T00780044
PAIK 190356Z AUTO 00000KT 10SM OVC060 08/05 A3018 RMK AO2 SLP223 T00780050
PAIK 190256Z AUTO 24007KT 10SM BKN038 OVC048 10/04 A3018 RMK AO2 SLP224 T01000044 56002
PAIK 190156Z AUTO 23005KT 10SM BKN049 11/03 A3019 RMK AO2 SLP225 T01060028
PAIK 190129Z AUTO 25007KT 10SM SCT026 OVC049 10/02 A3019 RMK AO2
PAIK 190120Z AUTO 22008KT 10SM BKN028 OVC055 11/04 A3019 RMK AO2
PAIK 190056Z AUTO 22005KT 10SM FEW030 SCT037 BKN055 11/04 A3019 RMK AO2 SLP225 T01060044
PAIK 182356Z AUTO 22008KT 10SM OVC055 10/04 A3019 RMK AO2 SLP226 60001 T01000039 10111 20083 50001
PAIK 182256Z AUTO 22006KT 10SM OVC050 09/06 A3019 RMK AO2 SLP228 T00940056
PAIK 182156Z AUTO 23004KT 10SM SCT016 OVC050 09/07 A3019 RMK AO2 SLP227 T00940067
PAIK 182108Z AUTO 23004KT 10SM FEW012 BKN048 09/07 A3019 RMK AO2
PAIK 182056Z AUTO 21005KT 10SM SCT010 BKN018 BKN030 09/07 A3019 RMK AO2 SLP226 60001 T00940067 51005